Time;durP1;ratioP1;P1;durP2;ratioP2;P2;SDS_P1;SDS_P2;PMS_P1;PMS_P2;Temp;Humidity;BMP_temperature;BMP_pressure;BME280_temperature;BME280_humidity;BME280_pressure;Samples;Min_cycle;Max_cycle;Signal;HPM_P1;HPM_P2
2022/10/17 00:02:26;;;;;;;4.70;4.30;;;;;;;;;;5068708;28;20207;-61
2022/10/17 00:04:53;;;;;;;5.23;4.73;;;;;;;;;;5072901;28;20310;-62
2022/10/17 00:07:20;;;;;;;6.43;3.93;;;;;;;;;;5070760;28;20221;-61
2022/10/17 00:09:48;;;;;;;5.03;3.53;;;;;;;;;;5058888;28;20289;-62
2022/10/17 00:12:15;;;;;;;3.40;3.10;;;;;;;;;;5064434;28;20764;-62
2022/10/17 00:14:42;;;;;;;3.70;3.30;;;;;;;;;;5062634;28;20657;-61
2022/10/17 00:17:09;;;;;;;7.83;3.13;;;;;;;;;;5061524;28;20281;-62
2022/10/17 00:19:37;;;;;;;2.97;2.78;;;;;;;;;;5070095;28;20289;-62
2022/10/17 00:22:04;;;;;;;3.95;3.20;;;;;;;;;;5073997;28;20221;-61
2022/10/17 00:24:31;;;;;;;3.53;3.22;;;;;;;;;;5065997;28;20212;-60
2022/10/17 00:26:58;;;;;;;4.30;2.87;;;;;;;;;;5084153;28;20233;-62
2022/10/17 00:29:26;;;;;;;3.38;2.72;;;;;;;;;;5083464;28;20201;-60
2022/10/17 00:31:54;;;;;;;4.60;3.10;;;;;;;;;;5060718;28;20255;-62
2022/10/17 00:34:23;;;;;;;3.40;3.10;;;;;;;;;;5078817;28;20687;-62
2022/10/17 00:36:50;;;;;;;4.57;2.50;;;;;;;;;;5087059;28;20283;-61
2022/10/17 00:39:17;;;;;;;3.17;2.90;;;;;;;;;;5066678;28;20204;-62
2022/10/17 00:41:44;;;;;;;2.83;2.63;;;;;;;;;;5067568;28;20611;-62
2022/10/17 00:44:30;;;;;;;2.75;2.55;;;;;;;;;;5082225;28;20727;-61
2022/10/17 00:46:59;;;;;;;3.90;2.77;;;;;;;;;;5066698;28;20720;-61
2022/10/17 00:49:28;;;;;;;4.87;2.67;;;;;;;;;;5064458;28;20262;-61
2022/10/17 00:51:57;;;;;;;3.00;2.80;;;;;;;;;;5056046;28;20592;-61
2022/10/17 00:54:27;;;;;;;5.80;2.80;;;;;;;;;;5080834;28;20292;-61
2022/10/17 00:56:54;;;;;;;3.50;2.67;;;;;;;;;;5065001;28;20277;-62
2022/10/17 00:59:22;;;;;;;5.30;2.67;;;;;;;;;;5063819;28;20209;-62
2022/10/17 01:02:04;;;;;;;4.32;2.53;;;;;;;;;;5063234;28;20218;-61
2022/10/17 01:04:32;;;;;;;5.37;2.50;;;;;;;;;;5076405;28;20667;-62
2022/10/17 01:06:59;;;;;;;2.77;2.57;;;;;;;;;;5062049;28;20221;-61
2022/10/17 01:09:26;;;;;;;3.93;2.77;;;;;;;;;;5061022;28;20202;-61
2022/10/17 01:12:13;;;;;;;3.97;2.70;;;;;;;;;;5083855;28;20263;-61
2022/10/17 01:14:49;;;;;;;4.23;2.50;;;;;;;;;;5059285;28;20332;-62
2022/10/17 01:17:35;;;;;;;2.70;2.50;;;;;;;;;;5064621;28;21634;-62
2022/10/17 01:20:12;;;;;;;2.53;2.33;;;;;;;;;;5067936;28;20240;-61
2022/10/17 01:22:45;;;;;;;3.77;2.77;;;;;;;;;;5066439;28;20316;-61
2022/10/17 01:25:18;;;;;;;5.40;2.63;;;;;;;;;;5065604;28;20208;-63
2022/10/17 01:27:53;;;;;;;3.47;2.77;;;;;;;;;;5064047;28;20231;-61
2022/10/17 01:30:29;;;;;;;2.87;2.67;;;;;;;;;;5081499;28;20578;-61
2022/10/17 01:33:15;;;;;;;5.47;2.80;;;;;;;;;;5067269;28;20283;-62
2022/10/17 01:35:50;;;;;;;3.60;2.70;;;;;;;;;;5078435;28;20659;-61
2022/10/17 01:38:26;;;;;;;2.93;2.73;;;;;;;;;;5059969;28;20217;-61
2022/10/17 01:41:00;;;;;;;5.20;2.40;;;;;;;;;;5063162;28;20224;-61
2022/10/17 01:43:53;;;;;;;3.17;2.60;;;;;;;;;;5065664;28;20690;-61
2022/10/17 01:46:36;;;;;;;5.30;2.40;;;;;;;;;;5055214;28;20288;-61
2022/10/17 01:49:05;;;;;;;2.50;2.33;;;;;;;;;;5068789;28;20237;-61
2022/10/17 01:51:41;;;;;;;5.20;2.37;;;;;;;;;;5065902;28;20209;-61
2022/10/17 01:54:11;;;;;;;3.63;2.90;;;;;;;;;;5068190;28;20292;-61
2022/10/17 01:56:40;;;;;;;3.57;2.70;;;;;;;;;;5056746;28;20672;-62
2022/10/17 01:59:12;;;;;;;4.17;3.00;;;;;;;;;;5065238;28;20627;-61
2022/10/17 02:01:41;;;;;;;3.63;3.23;;;;;;;;;;5061394;28;20222;-63
2022/10/17 02:04:09;;;;;;;3.13;2.83;;;;;;;;;;5062300;28;20224;-63
2022/10/17 02:06:37;;;;;;;4.13;2.97;;;;;;;;;;5064525;28;20215;-63
2022/10/17 02:09:17;;;;;;;4.27;3.63;;;;;;;;;;5061852;28;20217;-62
2022/10/17 02:11:49;;;;;;;7.27;3.30;;;;;;;;;;5063326;28;20799;-62
2022/10/17 02:14:41;;;;;;;5.20;3.27;;;;;;;;;;5053206;28;20210;-62
2022/10/17 02:17:23;;;;;;;4.53;3.43;;;;;;;;;;5065017;28;20296;-62
2022/10/17 02:20:17;;;;;;;4.83;3.10;;;;;;;;;;5065528;28;20216;-62
2022/10/17 02:23:02;;;;;;;5.10;3.47;;;;;;;;;;5060514;28;20724;-62
2022/10/17 02:25:33;;;;;;;4.90;4.13;;;;;;;;;;5066126;28;20202;-62
2022/10/17 02:28:06;;;;;;;11.50;8.87;;;;;;;;;;5057749;28;20229;-63
2022/10/17 02:30:36;;;;;;;15.53;10.53;;;;;;;;;;5059395;28;20324;-63
2022/10/17 02:33:13;;;;;;;3.10;2.80;;;;;;;;;;5060213;28;20222;-62
2022/10/17 02:35:43;;;;;;;2.67;2.47;;;;;;;;;;5062432;28;20211;-63
2022/10/17 02:38:11;;;;;;;2.63;2.43;;;;;;;;;;5068116;28;20316;-63
2022/10/17 02:40:40;;;;;;;4.47;2.27;;;;;;;;;;5063901;28;20212;-62
2022/10/17 02:43:07;;;;;;;2.27;2.07;;;;;;;;;;5058314;28;20207;-62
2022/10/17 02:45:36;;;;;;;2.97;2.00;;;;;;;;;;5081619;28;20205;-62
2022/10/17 02:48:05;;;;;;;2.20;2.00;;;;;;;;;;5062159;28;20242;-62
2022/10/17 02:50:43;;;;;;;3.37;1.93;;;;;;;;;;5066650;28;20284;-62
2022/10/17 02:53:15;;;;;;;2.80;1.80;;;;;;;;;;5063067;28;20308;-63
2022/10/17 02:55:53;;;;;;;1.97;1.87;;;;;;;;;;5065433;28;20218;-62
2022/10/17 02:58:23;;;;;;;2.23;2.03;;;;;;;;;;5064515;28;20234;-62
2022/10/17 03:00:51;;;;;;;3.90;2.07;;;;;;;;;;5065790;28;20631;-62
2022/10/17 03:03:26;;;;;;;4.63;2.20;;;;;;;;;;5066657;28;20206;-62
2022/10/17 03:05:54;;;;;;;2.70;2.03;;;;;;;;;;5066480;28;20733;-63
2022/10/17 03:08:22;;;;;;;3.43;2.07;;;;;;;;;;5067184;28;20760;-63
2022/10/17 03:10:50;;;;;;;2.20;1.87;;;;;;;;;;5087578;28;20206;-62
2022/10/17 03:13:17;;;;;;;1.93;1.83;;;;;;;;;;5069418;28;20205;-62
2022/10/17 03:15:45;;;;;;;2.83;2.20;;;;;;;;;;5084639;28;20743;-62
2022/10/17 03:18:12;;;;;;;2.27;2.07;;;;;;;;;;5070148;28;20275;-61
2022/10/17 03:20:40;;;;;;;2.67;2.07;;;;;;;;;;5070586;28;20323;-63
2022/10/17 03:23:07;;;;;;;3.77;2.50;;;;;;;;;;5054180;28;20312;-65
2022/10/17 03:25:34;;;;;;;3.40;2.93;;;;;;;;;;5064990;28;20579;-63
2022/10/17 03:28:01;;;;;;;8.30;5.23;;;;;;;;;;5084020;28;20229;-61
2022/10/17 03:30:29;;;;;;;7.27;5.30;;;;;;;;;;5086304;28;20263;-63
2022/10/17 03:33:00;;;;;;;9.30;6.20;;;;;;;;;;5066677;28;20200;-63
2022/10/17 03:35:28;;;;;;;8.00;4.03;;;;;;;;;;5066073;28;20539;-62
2022/10/17 03:37:56;;;;;;;2.70;2.50;;;;;;;;;;5064423;28;20221;-63
2022/10/17 03:40:23;;;;;;;2.90;2.70;;;;;;;;;;5042751;28;20227;-62
2022/10/17 03:42:51;;;;;;;2.93;2.70;;;;;;;;;;5064177;28;20221;-63
2022/10/17 03:45:18;;;;;;;3.73;2.90;;;;;;;;;;5068828;28;20251;-63
2022/10/17 03:47:45;;;;;;;5.53;3.13;;;;;;;;;;5059479;28;20344;-62
2022/10/17 03:50:13;;;;;;;3.67;2.67;;;;;;;;;;5064242;28;20251;-63
2022/10/17 03:52:41;;;;;;;3.17;2.87;;;;;;;;;;5070160;28;20237;-63
2022/10/17 03:55:09;;;;;;;4.90;2.57;;;;;;;;;;5067004;28;20224;-65
2022/10/17 03:57:36;;;;;;;5.50;3.03;;;;;;;;;;5065222;28;20331;-62
2022/10/17 04:00:07;;;;;;;7.70;4.10;;;;;;;;;;5062936;28;20285;-61
2022/10/17 04:02:34;;;;;;;6.70;4.40;;;;;;;;;;5070251;28;20231;-63
2022/10/17 04:05:02;;;;;;;6.77;4.90;;;;;;;;;;5056476;28;20201;-63
2022/10/17 04:07:29;;;;;;;8.17;4.53;;;;;;;;;;5064593;28;20699;-62
2022/10/17 04:09:56;;;;;;;6.40;4.03;;;;;;;;;;5057021;28;20293;-63
2022/10/17 04:12:23;;;;;;;5.57;2.83;;;;;;;;;;5065775;28;20857;-62
2022/10/17 04:14:51;;;;;;;3.10;2.80;;;;;;;;;;5065859;28;20251;-61
2022/10/17 04:17:18;;;;;;;4.67;2.87;;;;;;;;;;5072197;28;20321;-63
2022/10/17 04:19:45;;;;;;;3.10;2.80;;;;;;;;;;5069852;28;20304;-63
2022/10/17 04:22:13;;;;;;;3.60;2.40;;;;;;;;;;5069175;28;20229;-63
2022/10/17 04:24:40;;;;;;;3.73;2.40;;;;;;;;;;5066768;28;20225;-63
2022/10/17 04:27:07;;;;;;;4.80;3.30;;;;;;;;;;5065096;28;20206;-62
2022/10/17 04:29:35;;;;;;;6.87;4.70;;;;;;;;;;5057149;28;20290;-63
2022/10/17 04:32:02;;;;;;;13.23;7.30;;;;;;;;;;5080372;28;20681;-62
2022/10/17 04:34:29;;;;;;;16.63;9.40;;;;;;;;;;5060558;28;20229;-63
2022/10/17 04:36:57;;;;;;;25.30;13.00;;;;;;;;;;5065730;28;20229;-62
2022/10/17 04:39:25;;;;;;;18.27;9.60;;;;;;;;;;5063575;28;20579;-63
2022/10/17 04:41:53;;;;;;;16.13;9.57;;;;;;;;;;5064674;28;20220;-62
2022/10/17 04:44:20;;;;;;;13.83;8.10;;;;;;;;;;5067382;28;20205;-63
2022/10/17 04:46:47;;;;;;;13.67;7.47;;;;;;;;;;5060447;28;20212;-63
2022/10/17 04:49:15;;;;;;;13.60;8.67;;;;;;;;;;5067410;28;20227;-63
2022/10/17 04:51:42;;;;;;;13.50;9.97;;;;;;;;;;5063211;28;20304;-62
2022/10/17 04:54:09;;;;;;;13.53;8.33;;;;;;;;;;5067972;28;20301;-62
2022/10/17 04:56:37;;;;;;;12.00;6.87;;;;;;;;;;5064832;28;20413;-62
2022/10/17 04:59:04;;;;;;;13.83;8.00;;;;;;;;;;5063280;28;20320;-62
2022/10/17 05:01:31;;;;;;;12.47;8.97;;;;;;;;;;5057191;28;20223;-62
2022/10/17 05:03:58;;;;;;;15.03;10.30;;;;;;;;;;5058392;28;20201;-62
2022/10/17 05:06:30;;;;;;;14.90;10.23;;;;;;;;;;5062486;28;20636;-63
2022/10/17 05:08:59;;;;;;;17.90;11.50;;;;;;;;;;5056999;28;20249;-63
2022/10/17 05:11:27;;;;;;;23.73;13.83;;;;;;;;;;5065743;28;20204;-62
2022/10/17 05:13:56;;;;;;;18.03;10.93;;;;;;;;;;5054733;28;20226;-63
2022/10/17 05:16:24;;;;;;;11.40;7.40;;;;;;;;;;5056769;28;20194;-63
2022/10/17 05:18:53;;;;;;;13.43;8.50;;;;;;;;;;5053087;28;20226;-62
2022/10/17 05:21:21;;;;;;;12.20;8.80;;;;;;;;;;5054519;28;20652;-63
2022/10/17 05:23:48;;;;;;;12.63;8.30;;;;;;;;;;5058027;28;20664;-63
2022/10/17 05:26:16;;;;;;;13.43;7.97;;;;;;;;;;5063738;28;20225;-60
2022/10/17 05:28:43;;;;;;;13.43;6.93;;;;;;;;;;5057706;28;20308;-62
2022/10/17 05:31:11;;;;;;;7.77;5.43;;;;;;;;;;5061066;28;20259;-61
2022/10/17 05:33:38;;;;;;;8.13;5.20;;;;;;;;;;5063029;28;20205;-61
2022/10/17 05:36:07;;;;;;;9.67;6.17;;;;;;;;;;5067902;28;20204;-61
2022/10/17 05:38:34;;;;;;;9.23;6.23;;;;;;;;;;5055256;28;20312;-61
2022/10/17 05:41:02;;;;;;;16.20;6.80;;;;;;;;;;5059878;28;20303;-62
2022/10/17 05:43:30;;;;;;;10.87;6.50;;;;;;;;;;5074796;28;20730;-61
2022/10/17 05:45:57;;;;;;;12.97;6.70;;;;;;;;;;5065764;28;20284;-61
2022/10/17 05:48:24;;;;;;;10.00;6.57;;;;;;;;;;5083467;28;20328;-62
2022/10/17 05:50:57;;;;;;;11.70;7.23;;;;;;;;;;5082106;28;20201;-61
2022/10/17 05:53:24;;;;;;;11.30;7.80;;;;;;;;;;5062317;28;20296;-62
2022/10/17 05:55:56;;;;;;;13.57;7.40;;;;;;;;;;5064224;28;20295;-61
2022/10/17 05:58:24;;;;;;;12.30;8.67;;;;;;;;;;5068749;28;20256;-61
2022/10/17 06:01:12;;;;;;;11.23;8.03;;;;;;;;;;5056188;28;20656;-62
2022/10/17 06:03:39;;;;;;;10.83;7.97;;;;;;;;;;5061443;28;20221;-61
2022/10/17 06:06:08;;;;;;;11.77;7.70;;;;;;;;;;5062489;28;20372;-62
2022/10/17 06:08:35;;;;;;;11.43;7.00;;;;;;;;;;5069830;28;20231;-61
2022/10/17 06:11:03;;;;;;;6.17;2.90;;;;;;;;;;5070640;28;20196;-61
2022/10/17 06:13:36;;;;;;;5.70;3.60;;;;;;;;;;5068218;28;20217;-61
2022/10/17 06:16:03;;;;;;;6.20;5.10;;;;;;;;;;5047994;28;20201;-62
2022/10/17 06:18:31;;;;;;;10.63;5.97;;;;;;;;;;5049963;28;20584;-62
2022/10/17 06:21:02;;;;;;;9.27;3.57;;;;;;;;;;5054163;28;20237;-61
2022/10/17 06:23:30;;;;;;;8.07;4.30;;;;;;;;;;5053601;28;23367;-63
2022/10/17 06:25:58;;;;;;;7.70;5.10;;;;;;;;;;5056610;28;20970;-61
2022/10/17 06:28:25;;;;;;;16.17;9.20;;;;;;;;;;5049936;28;20272;-63
2022/10/17 06:30:53;;;;;;;10.10;7.97;;;;;;;;;;5053996;28;20200;-61
2022/10/17 06:33:22;;;;;;;13.27;7.63;;;;;;;;;;5051365;28;20787;-62
2022/10/17 06:35:56;;;;;;;9.37;7.37;;;;;;;;;;5056437;28;20225;-63
2022/10/17 06:38:23;;;;;;;7.13;6.43;;;;;;;;;;5058905;28;20221;-61
2022/10/17 06:40:52;;;;;;;9.67;6.57;;;;;;;;;;5054996;28;20305;-61
2022/10/17 06:43:20;;;;;;;9.27;5.63;;;;;;;;;;5055678;28;20643;-63
2022/10/17 06:45:54;;;;;;;9.33;6.30;;;;;;;;;;5063068;28;20252;-61
2022/10/17 06:48:21;;;;;;;10.60;6.10;;;;;;;;;;5060483;28;20818;-60
2022/10/17 06:50:48;;;;;;;10.83;5.47;;;;;;;;;;5056448;28;20205;-61
2022/10/17 06:53:15;;;;;;;5.90;5.20;;;;;;;;;;5072542;28;20210;-61
2022/10/17 06:55:43;;;;;;;8.23;5.40;;;;;;;;;;5066953;28;20283;-61
2022/10/17 06:58:10;;;;;;;5.30;4.80;;;;;;;;;;5064607;28;20661;-63
2022/10/17 07:00:37;;;;;;;7.40;4.63;;;;;;;;;;5057832;28;20205;-63
2022/10/17 07:03:05;;;;;;;6.77;4.10;;;;;;;;;;5046762;28;20325;-61
2022/10/17 07:05:32;;;;;;;9.83;3.70;;;;;;;;;;5066289;28;21518;-61
2022/10/17 07:07:59;;;;;;;3.50;3.20;;;;;;;;;;5054126;28;20218;-61
2022/10/17 07:10:27;;;;;;;4.30;3.20;;;;;;;;;;5067368;28;20281;-61
2022/10/17 07:12:54;;;;;;;5.80;3.00;;;;;;;;;;5052294;28;20222;-63
2022/10/17 07:15:21;;;;;;;5.77;3.43;;;;;;;;;;5060413;28;20206;-62
2022/10/17 07:17:49;;;;;;;5.43;3.30;;;;;;;;;;5062214;28;20235;-64
2022/10/17 07:20:16;;;;;;;4.53;3.67;;;;;;;;;;5054939;28;20268;-61
2022/10/17 07:22:45;;;;;;;9.33;4.63;;;;;;;;;;5055866;28;20249;-61
2022/10/17 07:25:12;;;;;;;7.90;4.03;;;;;;;;;;5062975;28;20199;-61
2022/10/17 07:27:39;;;;;;;6.87;3.90;;;;;;;;;;5074347;28;20316;-61
2022/10/17 07:30:07;;;;;;;6.07;3.80;;;;;;;;;;5055859;28;20206;-60
2022/10/17 07:32:34;;;;;;;7.67;3.77;;;;;;;;;;5050990;28;20214;-62
2022/10/17 07:35:01;;;;;;;3.47;3.17;;;;;;;;;;5052634;28;20325;-63
2022/10/17 07:37:29;;;;;;;3.77;3.10;;;;;;;;;;5054025;28;20722;-61
2022/10/17 07:39:57;;;;;;;3.67;3.37;;;;;;;;;;5051313;28;20655;-63
2022/10/17 07:42:24;;;;;;;6.80;3.30;;;;;;;;;;5062412;28;20312;-62
2022/10/17 07:44:51;;;;;;;6.77;4.20;;;;;;;;;;5057823;28;20651;-62
2022/10/17 07:47:19;;;;;;;5.57;3.17;;;;;;;;;;5060043;28;20222;-62
2022/10/17 07:49:46;;;;;;;4.57;3.27;;;;;;;;;;5075798;28;20202;-63
2022/10/17 07:52:14;;;;;;;3.10;2.90;;;;;;;;;;5063415;28;20730;-63
2022/10/17 07:54:42;;;;;;;3.10;2.90;;;;;;;;;;5060725;28;20747;-62
2022/10/17 07:57:09;;;;;;;3.88;2.72;;;;;;;;;;5059678;28;20197;-63
2022/10/17 07:59:37;;;;;;;3.88;2.67;;;;;;;;;;5055722;28;20304;-63
2022/10/17 08:02:06;;;;;;;3.40;3.03;;;;;;;;;;5057986;28;20635;-63
2022/10/17 08:04:35;;;;;;;4.05;3.20;;;;;;;;;;5056529;28;20336;-62
2022/10/17 08:07:02;;;;;;;7.72;2.58;;;;;;;;;;5058455;28;20266;-64
2022/10/17 08:09:48;;;;;;;2.38;2.17;;;;;;;;;;5057225;28;20679;-62
2022/10/17 08:12:15;;;;;;;2.30;2.10;;;;;;;;;;5069235;28;20285;-62
2022/10/17 08:14:42;;;;;;;3.45;2.28;;;;;;;;;;5063194;28;20213;-62
2022/10/17 08:17:10;;;;;;;3.45;2.20;;;;;;;;;;5063828;28;20737;-63
2022/10/17 08:19:40;;;;;;;5.03;2.45;;;;;;;;;;5064285;28;20292;-61
2022/10/17 08:22:07;;;;;;;3.70;2.40;;;;;;;;;;5068077;28;20688;-62
2022/10/17 08:24:35;;;;;;;2.53;2.13;;;;;;;;;;5062511;28;20202;-63
2022/10/17 08:27:07;;;;;;;3.85;2.42;;;;;;;;;;5075257;28;20825;-61
2022/10/17 08:29:34;;;;;;;4.95;2.35;;;;;;;;;;5063849;28;20255;-61
2022/10/17 08:32:02;;;;;;;2.60;2.35;;;;;;;;;;5057899;28;20285;-62
2022/10/17 08:34:35;;;;;;;5.57;2.20;;;;;;;;;;5070297;28;20209;-62
2022/10/17 08:37:02;;;;;;;2.65;2.45;;;;;;;;;;5062924;28;20208;-63
2022/10/17 08:39:29;;;;;;;3.88;2.20;;;;;;;;;;5064377;28;20232;-61
2022/10/17 08:42:00;;;;;;;3.35;2.30;;;;;;;;;;5054537;28;20206;-62
2022/10/17 08:44:39;;;;;;;6.45;2.13;;;;;;;;;;5059179;28;20608;-62
2022/10/17 08:47:10;;;;;;;3.20;2.25;;;;;;;;;;5063760;28;20211;-61
2022/10/17 08:49:46;;;;;;;2.10;2.00;;;;;;;;;;5058926;28;20226;-63
2022/10/17 08:52:37;;;;;;;2.38;2.17;;;;;;;;;;5065364;28;20289;-60
2022/10/17 08:55:09;;;;;;;6.70;2.05;;;;;;;;;;5050860;28;20668;-63
2022/10/17 08:57:36;;;;;;;3.15;2.10;;;;;;;;;;5064742;28;20708;-62
2022/10/17 09:00:08;;;;;;;2.60;2.05;;;;;;;;;;5055488;28;20680;-62
2022/10/17 09:02:51;;;;;;;2.45;1.85;;;;;;;;;;5059161;28;20575;-62
2022/10/17 09:05:34;;;;;;;5.22;2.15;;;;;;;;;;5065350;28;20675;-61
2022/10/17 09:08:08;;;;;;;5.15;2.10;;;;;;;;;;5061490;28;20244;-62
2022/10/17 09:10:36;;;;;;;3.40;2.13;;;;;;;;;;5069915;28;20279;-63
2022/10/17 09:13:21;;;;;;;3.00;2.10;;;;;;;;;;5058078;28;20252;-63
2022/10/17 09:16:01;;;;;;;2.90;2.03;;;;;;;;;;5066816;28;20695;-63
2022/10/17 09:18:37;;;;;;;2.30;1.92;;;;;;;;;;5066762;28;20229;-63
2022/10/17 09:21:04;;;;;;;3.53;2.10;;;;;;;;;;5065875;28;20232;-63
2022/10/17 09:23:36;;;;;;;1.80;1.70;;;;;;;;;;5060082;28;20222;-61
2022/10/17 09:26:10;;;;;;;3.97;1.90;;;;;;;;;;5062559;28;20248;-64
2022/10/17 09:28:38;;;;;;;2.95;1.80;;;;;;;;;;5053046;28;20231;-63
2022/10/17 09:31:25;;;;;;;3.88;2.08;;;;;;;;;;5061262;28;20204;-63
2022/10/17 09:33:54;;;;;;;3.47;1.88;;;;;;;;;;5061395;28;20206;-62
2022/10/17 09:36:36;;;;;;;1.75;1.65;;;;;;;;;;5057903;28;20666;-64
2022/10/17 09:39:19;;;;;;;1.98;1.73;;;;;;;;;;5075374;28;20291;-62
2022/10/17 09:41:49;;;;;;;2.75;1.73;;;;;;;;;;5057501;28;20219;-64
2022/10/17 09:44:20;;;;;;;1.92;1.80;;;;;;;;;;5062889;28;20639;-62
2022/10/17 09:47:17;;;;;;;2.80;1.70;;;;;;;;;;5072624;28;20284;-63
2022/10/17 09:49:45;;;;;;;3.28;2.10;;;;;;;;;;5051725;28;20211;-64
2022/10/17 09:52:16;;;;;;;2.67;2.00;;;;;;;;;;5073303;28;20201;-63
2022/10/17 09:55:12;;;;;;;2.08;1.95;;;;;;;;;;5062540;28;20296;-63
2022/10/17 09:57:52;;;;;;;2.25;1.80;;;;;;;;;;5035721;28;20264;-64
2022/10/17 10:00:24;;;;;;;2.90;1.80;;;;;;;;;;5073852;28;20696;-61
2022/10/17 10:03:07;;;;;;;3.15;2.20;;;;;;;;;;5069382;28;20224;-62
2022/10/17 10:05:34;;;;;;;2.42;2.03;;;;;;;;;;5054326;28;20207;-64
2022/10/17 10:08:11;;;;;;;2.92;1.70;;;;;;;;;;5078366;28;20222;-62
2022/10/17 10:10:42;;;;;;;3.10;1.90;;;;;;;;;;5063004;28;20932;-62
2022/10/17 10:13:12;;;;;;;3.83;1.73;;;;;;;;;;5053599;28;20344;-61
2022/10/17 10:15:41;;;;;;;2.03;1.88;;;;;;;;;;5060132;28;20755;-62
2022/10/17 10:18:27;;;;;;;2.30;2.10;;;;;;;;;;5062422;28;20233;-62
2022/10/17 10:21:10;;;;;;;3.03;1.88;;;;;;;;;;5059889;28;20675;-63
2022/10/17 10:23:38;;;;;;;2.33;1.80;;;;;;;;;;5056785;28;20308;-62
2022/10/17 10:26:15;;;;;;;1.70;1.60;;;;;;;;;;5059024;28;20212;-62
2022/10/17 10:28:58;;;;;;;3.70;1.90;;;;;;;;;;5062231;28;20353;-62
2022/10/17 10:31:26;;;;;;;2.95;1.70;;;;;;;;;;5065318;28;20205;-62
2022/10/17 10:33:54;;;;;;;3.15;1.75;;;;;;;;;;5065253;28;20291;-62
2022/10/17 10:36:23;;;;;;;3.40;2.00;;;;;;;;;;5064057;28;20224;-63
2022/10/17 10:38:55;;;;;;;5.03;1.80;;;;;;;;;;5062515;28;20323;-61
2022/10/17 10:41:26;;;;;;;2.13;1.80;;;;;;;;;;5058840;28;22379;-61
2022/10/17 10:43:55;;;;;;;3.60;1.80;;;;;;;;;;5079354;28;20231;-61
2022/10/17 10:46:23;;;;;;;4.25;1.80;;;;;;;;;;5063394;28;20205;-62
2022/10/17 10:48:57;;;;;;;2.67;1.70;;;;;;;;;;5061666;28;20651;-64
2022/10/17 10:51:39;;;;;;;1.58;1.48;;;;;;;;;;5053254;28;20296;-62
2022/10/17 10:54:21;;;;;;;3.22;1.70;;;;;;;;;;5056286;28;20214;-62
2022/10/17 10:56:56;;;;;;;3.25;1.48;;;;;;;;;;5063855;28;20744;-62
2022/10/17 10:59:28;;;;;;;4.25;1.65;;;;;;;;;;5056692;28;20208;-62
2022/10/17 11:02:01;;;;;;;2.75;1.83;;;;;;;;;;5057266;28;20201;-64
2022/10/17 11:04:55;;;;;;;1.98;1.70;;;;;;;;;;5064810;28;20226;-63
2022/10/17 11:07:29;;;;;;;3.35;1.73;;;;;;;;;;5067653;28;20225;-62
2022/10/17 11:10:23;;;;;;;2.85;1.45;;;;;;;;;;5040045;28;20220;-62
2022/10/17 11:12:55;;;;;;;1.70;1.60;;;;;;;;;;5084278;28;20309;-62
2022/10/17 11:15:22;;;;;;;2.95;1.63;;;;;;;;;;5059168;28;20241;-62
2022/10/17 11:17:58;;;;;;;3.70;1.48;;;;;;;;;;5054028;28;20279;-62
2022/10/17 11:20:45;;;;;;;1.50;1.40;;;;;;;;;;5064494;28;20288;-63
2022/10/17 11:23:20;;;;;;;4.10;2.00;;;;;;;;;;5064235;28;20232;-63
2022/10/17 11:25:49;;;;;;;4.03;1.52;;;;;;;;;;5072694;28;20213;-63
2022/10/17 11:28:18;;;;;;;6.22;1.60;;;;;;;;;;5064581;28;20229;-63
2022/10/17 11:30:56;;;;;;;2.97;1.65;;;;;;;;;;5063498;28;20288;-63
2022/10/17 11:33:26;;;;;;;2.83;1.70;;;;;;;;;;5069611;28;22064;-63
2022/10/17 11:35:56;;;;;;;1.92;1.38;;;;;;;;;;5049772;28;20693;-63
2022/10/17 11:38:33;;;;;;;4.85;1.67;;;;;;;;;;5057808;28;20229;-62
2022/10/17 11:41:00;;;;;;;3.30;1.85;;;;;;;;;;5081612;28;20292;-62
2022/10/17 11:43:40;;;;;;;1.90;1.80;;;;;;;;;;5074069;28;20847;-62
2022/10/17 11:46:13;;;;;;;2.45;1.75;;;;;;;;;;5067673;28;20205;-63
2022/10/17 11:48:43;;;;;;;5.30;1.63;;;;;;;;;;5061331;28;20248;-62
2022/10/17 11:51:13;;;;;;;4.57;1.83;;;;;;;;;;5056524;28;20201;-63
2022/10/17 11:54:10;;;;;;;1.50;1.40;;;;;;;;;;5069621;28;20612;-63
2022/10/17 11:56:51;;;;;;;2.03;1.85;;;;;;;;;;5073307;28;20205;-63
2022/10/17 11:59:31;;;;;;;4.30;1.83;;;;;;;;;;5061060;28;20233;-64
2022/10/17 12:02:04;;;;;;;2.95;1.70;;;;;;;;;;5071024;28;20303;-62
2022/10/17 12:04:31;;;;;;;3.60;1.60;;;;;;;;;;5067715;28;20243;-61
2022/10/17 12:07:01;;;;;;;4.85;1.50;;;;;;;;;;5063830;28;20205;-62
2022/10/17 12:09:29;;;;;;;2.42;1.52;;;;;;;;;;5059562;28;20877;-62
2022/10/17 12:11:58;;;;;;;3.42;1.38;;;;;;;;;;5063294;28;20782;-63
2022/10/17 12:14:34;;;;;;;8.90;2.00;;;;;;;;;;5062259;28;20312;-62
2022/10/17 12:17:02;;;;;;;2.95;1.50;;;;;;;;;;5067007;28;20233;-61
2022/10/17 12:19:34;;;;;;;3.63;1.52;;;;;;;;;;5066670;28;20200;-61
2022/10/17 12:22:06;;;;;;;3.30;1.40;;;;;;;;;;5072465;28;20208;-62
2022/10/17 12:24:41;;;;;;;3.10;1.73;;;;;;;;;;5069832;28;22063;-62
2022/10/17 12:27:27;;;;;;;7.55;1.80;;;;;;;;;;5068236;28;20244;-62
2022/10/17 12:30:00;;;;;;;2.13;1.35;;;;;;;;;;5069421;28;20682;-61
2022/10/17 12:32:27;;;;;;;4.10;1.60;;;;;;;;;;5071145;28;20289;-62
2022/10/17 12:35:18;;;;;;;2.63;1.50;;;;;;;;;;5062982;28;20212;-63
2022/10/17 12:37:49;;;;;;;2.78;1.65;;;;;;;;;;5063297;28;20311;-62
2022/10/17 12:40:35;;;;;;;3.03;1.98;;;;;;;;;;5055406;28;20208;-62
2022/10/17 12:43:22;;;;;;;2.75;1.58;;;;;;;;;;5064629;28;20885;-63
2022/10/17 12:45:50;;;;;;;4.43;1.55;;;;;;;;;;5056378;28;20212;-61
2022/10/17 12:48:33;;;;;;;2.92;1.70;;;;;;;;;;5059600;28;20317;-62
2022/10/17 12:51:03;;;;;;;5.03;1.50;;;;;;;;;;5062138;28;20201;-61
2022/10/17 12:54:06;;;;;;;2.20;1.50;;;;;;;;;;5078347;28;20576;-62
2022/10/17 12:56:39;;;;;;;6.22;2.90;;;;;;;;;;5061371;28;20213;-61
2022/10/17 12:59:13;;;;;;;3.22;1.60;;;;;;;;;;5061425;28;20348;-61
2022/10/17 13:01:43;;;;;;;3.95;1.60;;;;;;;;;;5063066;28;20206;-62
2022/10/17 13:04:10;;;;;;;2.97;1.60;;;;;;;;;;5077361;28;20225;-63
2022/10/17 13:06:39;;;;;;;5.07;1.52;;;;;;;;;;5054962;28;20234;-62
2022/10/17 13:09:25;;;;;;;6.50;2.17;;;;;;;;;;5080841;28;20245;-62
2022/10/17 13:11:53;;;;;;;5.20;2.00;;;;;;;;;;5060305;28;20234;-62
2022/10/17 13:14:22;;;;;;;3.67;1.55;;;;;;;;;;5061103;28;20215;-62
2022/10/17 13:16:52;;;;;;;12.02;4.88;;;;;;;;;;5056758;28;20238;-62
2022/10/17 13:19:24;;;;;;;3.70;1.98;;;;;;;;;;5056893;28;20225;-62
2022/10/17 13:21:54;;;;;;;4.47;1.75;;;;;;;;;;5060451;28;20607;-61
2022/10/17 13:24:27;;;;;;;7.22;1.70;;;;;;;;;;5059177;28;20229;-62
2022/10/17 13:26:54;;;;;;;3.78;1.90;;;;;;;;;;5060818;28;20209;-62
2022/10/17 13:29:24;;;;;;;3.45;1.70;;;;;;;;;;5062932;28;20674;-61
2022/10/17 13:31:53;;;;;;;1.73;1.25;;;;;;;;;;5061364;28;20292;-63
2022/10/17 13:34:22;;;;;;;3.95;1.80;;;;;;;;;;5058359;28;20204;-64
2022/10/17 13:36:54;;;;;;;5.13;2.50;;;;;;;;;;5055208;28;20251;-62
2022/10/17 13:39:23;;;;;;;2.15;1.70;;;;;;;;;;5058513;28;20203;-64
2022/10/17 13:42:23;;;;;;;2.88;1.70;;;;;;;;;;5047806;28;20805;-61
2022/10/17 13:44:51;;;;;;;5.65;1.73;;;;;;;;;;5063468;28;20221;-62
2022/10/17 13:47:23;;;;;;;4.03;1.83;;;;;;;;;;5058003;28;20332;-61
2022/10/17 13:49:50;;;;;;;3.50;1.60;;;;;;;;;;5056649;28;21483;-62
2022/10/17 13:52:24;;;;;;;3.03;2.08;;;;;;;;;;5059841;28;20324;-62
2022/10/17 13:54:52;;;;;;;3.85;1.80;;;;;;;;;;5069358;28;20206;-62
2022/10/17 13:57:27;;;;;;;5.13;1.40;;;;;;;;;;5058814;28;20294;-61
2022/10/17 14:00:19;;;;;;;2.60;1.30;;;;;;;;;;5068098;28;20558;-61
2022/10/17 14:02:47;;;;;;;4.15;1.40;;;;;;;;;;5067632;28;20300;-64
2022/10/17 14:05:16;;;;;;;2.85;1.30;;;;;;;;;;5073870;28;20228;-63
2022/10/17 14:07:51;;;;;;;2.83;1.20;;;;;;;;;;5059668;28;20249;-63
2022/10/17 14:10:39;;;;;;;4.70;1.20;;;;;;;;;;5058512;28;20901;-63
2022/10/17 14:13:07;;;;;;;3.50;1.38;;;;;;;;;;5066685;28;20240;-63
2022/10/17 14:15:36;;;;;;;2.58;1.40;;;;;;;;;;5066031;28;20201;-62
2022/10/17 14:18:05;;;;;;;3.00;1.30;;;;;;;;;;5072412;28;20224;-62
2022/10/17 14:20:34;;;;;;;2.63;1.30;;;;;;;;;;5068033;28;20232;-63
2022/10/17 14:23:32;;;;;;;2.97;1.05;;;;;;;;;;5074117;28;20573;-63
2022/10/17 14:26:11;;;;;;;1.88;1.30;;;;;;;;;;5055354;28;20213;-62
2022/10/17 14:28:39;;;;;;;4.20;1.48;;;;;;;;;;5064628;28;20221;-63
2022/10/17 14:31:19;;;;;;;3.88;1.05;;;;;;;;;;5062055;28;20202;-62
2022/10/17 14:33:47;;;;;;;3.00;1.25;;;;;;;;;;5052585;28;20202;-63
2022/10/17 14:36:17;;;;;;;2.25;1.00;;;;;;;;;;5072333;28;20276;-62
2022/10/17 14:38:46;;;;;;;5.00;1.98;;;;;;;;;;5063847;28;20313;-63
2022/10/17 14:41:17;;;;;;;1.90;1.00;;;;;;;;;;5064291;28;20659;-63
2022/10/17 14:44:06;;;;;;;4.35;1.35;;;;;;;;;;5072871;28;20223;-63
2022/10/17 14:46:34;;;;;;;6.43;1.30;;;;;;;;;;5058381;28;20232;-62
2022/10/17 14:49:05;;;;;;;1.25;1.00;;;;;;;;;;5063305;28;20258;-63
2022/10/17 14:51:33;;;;;;;1.38;0.80;;;;;;;;;;5061966;28;20221;-63
2022/10/17 14:54:23;;;;;;;5.82;0.90;;;;;;;;;;5079405;28;20213;-63
2022/10/17 14:56:52;;;;;;;1.98;0.70;;;;;;;;;;5070582;28;20562;-63
2022/10/17 14:59:22;;;;;;;1.58;0.70;;;;;;;;;;5050448;28;20542;-61
2022/10/17 15:02:10;;;;;;;3.33;1.00;;;;;;;;;;5051959;28;20211;-62
2022/10/17 15:04:37;;;;;;;2.80;0.90;;;;;;;;;;5058461;28;20316;-62
2022/10/17 15:07:05;;;;;;;2.17;1.00;;;;;;;;;;5052825;28;20292;-63
2022/10/17 15:09:32;;;;;;;4.97;0.80;;;;;;;;;;5058336;28;20220;-63